Workington, United Kingdom
Current Conditions -  °F | °C
As of 12:20 PM on Thursday 18 Dec 2014 (Local Time) from EGNC Reporting Station
Overcast Overcast  
Wind Chill: 54°   Ceiling: 800
Heat Index: 54°   Visibility: 6mi
Dew Point: 54°   Wind: 31mph
Humidity: 100%   Direction: 240°WSW
Pressure: 29.38"   Gusts: 44mph
Location:  54.64°N, 3.55°W
Report Text: EGNC 181220Z 24027G38KT 9999 BKN008 OVC013 12/12 Q0995
Loading
Personal Weather Stations






























Interactive Weather Map New forecast layout! Learn more

10-Day Weather Forecast

Advertisements
Track Severe Weather on mobile